ExpreSS Pegasus — SYDV — position and weather

sailwx.info

Track history (hours):
 
Tides and Currents Weather Stations Pressure Air Temp Water Temp Dewpoint Dewpoint Depression Visibility Wind Speed Wind Dir Waves Ship Positions

ExpreSS Pegasus

Last reported at 2018-Jul-20 17:19 UTC. Time now 2018-Jul-21 15:33 UTC.
Position N 39°52' E 025°03'.

Length 126 m; draft 5.5 m.

Type: Ship (hazmat cat B). MMSI: 237095000.

Date/timePositionNaut miles runAvg speedWind from/ knotsBaromVisibWave heightAir tempDewpointWater temp
2018-Jul-20 17:19N 39°52' E 025°03'615.6
2018-Jul-20 16:57N 39°57' E 024°59'816.9
2018-Jul-20 16:30N 40°03' E 024°54'917.0
2018-Jul-20 15:58N 40°12' E 024°48'816.7
2018-Jul-20 15:29N 40°19' E 024°43'816.7
2018-Jul-20 15:00N 40°26' E 024°38'816.7
2018-Jul-20 14:31N 40°33' E 024°33'816.3
2018-Jul-20 14:00N 40°41' E 024°29'816.8
2018-Jul-20 13:30N 40°49' E 024°26'713.7
2018-Jul-20 12:59N 40°56' E 024°25'0 0.0
2018-Jul-20 11:17N 40°56' E 024°25'1 3.0
2018-Jul-20 11:00N 40°55' E 024°24'817.0
2018-Jul-20 10:30N 40°47' E 024°27'917.0
2018-Jul-20 10:00N 40°39' E 024°29'917.3
2018-Jul-20 09:30N 40°31' E 024°34'917.3
2018-Jul-20 09:00N 40°24' E 024°40'3610.9
2018-Jul-20 05:43N 39°52' E 025°03'515.3
2018-Jul-20 05:23N 39°48' E 025°01'12714.9
2018-Jul-19 20:50N 37°47' E 024°09'14010.7
2018-Jul-19 07:46N 40°02' E 024°57'516.9
2018-Jul-19 07:29N 40°06' E 024°55'816.8
2018-Jul-19 07:00N 40°14' E 024°49'916.8
2018-Jul-19 06:30N 40°21' E 024°44'816.8
2018-Jul-19 06:00N 40°28' E 024°38'917.2
2018-Jul-19 05:30N 40°35' E 024°31'917.1
2018-Jul-19 05:01N 40°43' E 024°28'917.4
2018-Jul-19 04:31N 40°51' E 024°25'5 9.3
2018-Jul-19 04:00N 40°56' E 024°25'0 0.0
2018-Jul-19 03:30N 40°56' E 024°25'0 0.0
2018-Jul-19 03:01N 40°56' E 024°25'510.2
2018-Jul-19 02:30N 40°51' E 024°25'816.7
2018-Jul-19 02:00N 40°43' E 024°28'816.8
2018-Jul-19 01:31N 40°35' E 024°31'816.6
2018-Jul-19 01:01N 40°27' E 024°36'916.2
2018-Jul-19 00:29N 40°20' E 024°42'3216.0
2018-Jul-18 22:28N 39°52' E 025°03'0 0.2
2018-Jul-18 21:48N 39°52' E 025°03'515.0
2018-Jul-18 21:26N 39°47' E 025°01'1513.2
2018-Jul-18 20:20N 39°33' E 024°58'716.0
2018-Jul-18 19:52N 39°26' E 024°56'816.9
2018-Jul-18 19:23N 39°18' E 024°54'9715.1
2018-Jul-18 12:56N 37°47' E 024°09'13212.6
2018-Jul-18 02:24N 39°52' E 025°03'0 0.2
2018-Jul-18 01:30N 39°52' E 025°03'815.8
2018-Jul-18 00:59N 39°60' E 024°58'816.1
2018-Jul-18 00:30N 40°07' E 024°54'916.5
2018-Jul-17 23:59N 40°14' E 024°48'816.3
2018-Jul-17 23:30N 40°21' E 024°43'816.4
2018-Jul-17 23:00N 40°28' E 024°37'816.6
2018-Jul-17 22:30N 40°35' E 024°32'816.9
2018-Jul-17 22:00N 40°43' E 024°28'816.9
2018-Jul-17 21:30N 40°51' E 024°25'5 9.1
2018-Jul-17 20:58N 40°56' E 024°25'0 0.0
2018-Jul-17 20:18N 40°56' E 024°25'0 0.0
2018-Jul-17 20:00N 40°56' E 024°25'4 9.1
2018-Jul-17 19:30N 40°51' E 024°25'916.7
2018-Jul-17 18:59N 40°43' E 024°28'916.8
2018-Jul-17 18:28N 40°35' E 024°31'817.0
2018-Jul-17 18:00N 40°28' E 024°36'1116.6
2018-Jul-17 17:20N 40°18' E 024°43'616.7
2018-Jul-17 17:00N 40°13' E 024°47'24 8.9
2018-Jul-17 14:19N 39°52' E 025°02'2014.3
2018-Jul-17 12:57N 39°33' E 024°59'3717.0
2018-Jul-17 10:45N 38°56' E 024°49'517.4
2018-Jul-17 10:27N 38°51' E 024°48'817.3
2018-Jul-17 10:00N 38°43' E 024°46'917.5
2018-Jul-17 09:30N 38°35' E 024°44'5015.8
2018-Jul-17 06:23N 37°50' E 024°17'716.9
2018-Jul-17 05:58N 37°47' E 024°09'49 3.5
2018-Jul-16 16:16N 38°28' E 024°43'9114.0
2018-Jul-16 09:47N 39°58' E 024°58'516.7
2018-Jul-16 09:27N 40°02' E 024°55'1017.5
2018-Jul-16 08:52N 40°11' E 024°48'817.8
2018-Jul-16 08:26N 40°18' E 024°43'817.4
2018-Jul-16 07:59N 40°25' E 024°38'817.1
2018-Jul-16 07:30N 40°32' E 024°33'917.4
2018-Jul-16 07:00N 40°40' E 024°29'917.3
2018-Jul-16 06:30N 40°49' E 024°26'713.9
2018-Jul-16 05:59N 40°56' E 024°25'0 0.0
2018-Jul-16 05:25N 40°56' E 024°25'0 0.0
2018-Jul-16 02:49N 40°56' E 024°25'0 0.0
2018-Jul-16 02:25N 40°56' E 024°25'0 0.0
2018-Jul-16 01:55N 40°56' E 024°25'0 0.0
2018-Jul-16 01:25N 40°56' E 024°25'2 4.3
2018-Jul-16 01:00N 40°54' E 024°24'917.3
2018-Jul-16 00:30N 40°46' E 024°27'817.2
2018-Jul-16 00:01N 40°37' E 024°29'817.0
2018-Jul-15 23:31N 40°30' E 024°35'917.5
2018-Jul-15 22:59N 40°22' E 024°41'917.0
2018-Jul-15 22:28N 40°14' E 024°46'26 3.8
2018-Jul-15 15:41N 39°52' E 025°03'515.6
2018-Jul-15 15:20N 39°57' E 024°59'617.0
2018-Jul-15 15:00N 40°02' E 024°55'1217.6
2018-Jul-15 14:21N 40°12' E 024°48'817.9
2018-Jul-15 13:53N 40°19' E 024°43'717.4
2018-Jul-15 13:28N 40°25' E 024°38'817.3
2018-Jul-15 13:00N 40°32' E 024°33'917.1
2018-Jul-15 12:30N 40°40' E 024°29'817.1
2018-Jul-15 12:00N 40°48' E 024°26'815.1
2018-Jul-15 11:31N 40°56' E 024°25'0 0.0
2018-Jul-15 10:41N 40°56' E 024°25'0 0.0
2018-Jul-15 10:31N 40°56' E 024°25'612.6
2018-Jul-15 10:00N 40°50' E 024°26'917.3
2018-Jul-15 09:30N 40°41' E 024°28'917.1
2018-Jul-15 09:00N 40°33' E 024°32'917.0
2018-Jul-15 08:30N 40°26' E 024°38'917.5
2018-Jul-15 07:58N 40°17' E 024°43'29 3.0
2018-Jul-14 22:19N 39°52' E 025°03'2013.7
2018-Jul-14 20:52N 39°33' E 024°58'0 0.0
2018-Jul-13 19:28N 39°32' E 024°58'1414.0
2018-Jul-13 18:27N 39°46' E 025°01'6 4.8
2018-Jul-13 17:11N 39°52' E 025°03'615.6
2018-Jul-13 16:49N 39°57' E 024°59'516.9
2018-Jul-13 16:30N 40°01' E 024°55'917.2
2018-Jul-13 16:00N 40°09' E 024°50'1117.6
2018-Jul-13 15:24N 40°18' E 024°43'717.5
2018-Jul-13 15:00N 40°24' E 024°39'1717.4
2018-Jul-13 14:00N 40°40' E 024°29'917.3
2018-Jul-13 13:30N 40°48' E 024°26'814.8
2018-Jul-13 13:00N 40°56' E 024°25'0 0.0
2018-Jul-13 12:30N 40°56' E 024°25'0 0.0
2018-Jul-13 12:00N 40°56' E 024°25'0 0.0
2018-Jul-13 11:27N 40°56' E 024°25'0 0.0
2018-Jul-13 10:51N 40°56' E 024°25'0 0.0
2018-Jul-13 10:30N 40°56' E 024°25'4 8.2
2018-Jul-13 10:01N 40°52' E 024°25'917.3
2018-Jul-13 09:30N 40°44' E 024°28'817.0
2018-Jul-13 09:01N 40°35' E 024°31'917.3
2018-Jul-13 08:30N 40°28' E 024°37'917.4
2018-Jul-13 07:59N 40°20' E 024°42'3117.3
2018-Jul-13 06:13N 39°53' E 025°01'1 1.3
2018-Jul-13 05:09N 39°52' E 025°03'213.9
2018-Jul-13 05:00N 39°51' E 025°02'1217.0
2018-Jul-13 04:17N 39°39' E 024°59'516.8
2018-Jul-13 04:00N 39°34' E 024°59'7 9.7
2018-Jul-13 03:20N 39°28' E 024°56'1516.9
2018-Jul-13 02:27N 39°13' E 024°53'2216.7
2018-Jul-13 01:08N 38°51' E 024°48'6615.6
2018-Jul-12 20:55N 37°50' E 024°18'817.1
2018-Jul-12 20:28N 37°47' E 024°09'12711.8
2018-Jul-12 09:46N 39°47' E 025°01'6 4.7
2018-Jul-12 08:33N 39°52' E 025°03'114.1
2018-Jul-12 08:27N 39°53' E 025°02'1016.9
2018-Jul-12 07:53N 40°02' E 024°55'1017.0
2018-Jul-12 07:18N 40°10' E 024°49'517.1
2018-Jul-12 07:00N 40°14' E 024°46'916.9
2018-Jul-12 06:27N 40°23' E 024°40'717.0
2018-Jul-12 06:00N 40°29' E 024°35'816.6
2018-Jul-12 05:30N 40°37' E 024°30'917.1
2018-Jul-12 05:00N 40°45' E 024°27'816.9
2018-Jul-12 04:31N 40°53' E 024°25'3 5.7
2018-Jul-12 03:59N 40°56' E 024°25'0 0.0
2018-Jul-12 03:31N 40°56' E 024°25'0 0.0
2018-Jul-12 03:00N 40°56' E 024°25'0 0.0
2018-Jul-12 02:31N 40°56' E 024°25'1 2.2
2018-Jul-12 02:01N 40°55' E 024°24'917.1
2018-Jul-12 01:30N 40°47' E 024°27'917.1
2018-Jul-12 01:00N 40°38' E 024°29'817.1
2018-Jul-12 00:31N 40°31' E 024°34'917.0
2018-Jul-12 00:00N 40°23' E 024°40'916.9
2018-Jul-11 23:29N 40°16' E 024°45'2711.2
2018-Jul-11 21:05N 39°52' E 025°02'116.5
2018-Jul-11 20:59N 39°51' E 025°02'1813.6
2018-Jul-11 19:40N 39°33' E 024°58'3916.8
2018-Jul-11 17:21N 38°54' E 024°48'1916.9
2018-Jul-11 16:13N 38°36' E 024°45'517.0
2018-Jul-11 15:57N 38°31' E 024°44'62 5.0
2018-Jul-11 03:27N 39°32' E 024°58'1012.9
2018-Jul-11 02:42N 39°42' E 024°60'11 7.7
2018-Jul-11 01:18N 39°52' E 025°03'515.6
2018-Jul-11 00:59N 39°56' E 024°59'817.0
2018-Jul-11 00:31N 40°03' E 024°54'917.4
2018-Jul-11 00:01N 40°11' E 024°48'917.6
2018-Jul-10 23:30N 40°19' E 024°43'917.4
2018-Jul-10 23:01N 40°26' E 024°38'917.3
2018-Jul-10 22:31N 40°34' E 024°32'817.0
2018-Jul-10 22:01N 40°42' E 024°28'917.3
2018-Jul-10 21:31N 40°50' E 024°26'611.3
2018-Jul-10 21:00N 40°56' E 024°25'0 0.0
2018-Jul-10 20:28N 40°56' E 024°25'1 3.3
2018-Jul-10 20:00N 40°54' E 024°24'917.1
2018-Jul-10 19:30N 40°46' E 024°27'917.4
2018-Jul-10 19:00N 40°38' E 024°30'917.3
2018-Jul-10 18:30N 40°30' E 024°35'917.0
2018-Jul-10 18:00N 40°23' E 024°40'816.6
2018-Jul-10 17:30N 40°15' E 024°45'  
Track history (hours):
 
Tides and Currents Weather Stations Pressure Air Temp Water Temp Dewpoint Dewpoint Depression Visibility Wind Speed Wind Dir Waves Ship Positions

ExpreSS Pegasus

Last reported at 2018-Jul-20 17:19 UTC. Time now 2018-Jul-21 15:33 UTC.
Position N 39°52' E 025°03'.

Length 126 m; draft 5.5 m.

Type: Ship (hazmat cat B). MMSI: 237095000.

Date/timePositionNaut miles runAvg speedWind from/ knotsBaromVisibWave heightAir tempDewpointWater temp
2018-Jul-20 17:19N 39°52' E 025°03'615.6
2018-Jul-20 16:57N 39°57' E 024°59'816.9
2018-Jul-20 16:30N 40°03' E 024°54'917.0
2018-Jul-20 15:58N 40°12' E 024°48'816.7
2018-Jul-20 15:29N 40°19' E 024°43'816.7
2018-Jul-20 15:00N 40°26' E 024°38'816.7
2018-Jul-20 14:31N 40°33' E 024°33'816.3
2018-Jul-20 14:00N 40°41' E 024°29'816.8
2018-Jul-20 13:30N 40°49' E 024°26'713.7
2018-Jul-20 12:59N 40°56' E 024°25'0 0.0
2018-Jul-20 11:17N 40°56' E 024°25'1 3.0
2018-Jul-20 11:00N 40°55' E 024°24'817.0
2018-Jul-20 10:30N 40°47' E 024°27'917.0
2018-Jul-20 10:00N 40°39' E 024°29'917.3
2018-Jul-20 09:30N 40°31' E 024°34'917.3
2018-Jul-20 09:00N 40°24' E 024°40'3610.9
2018-Jul-20 05:43N 39°52' E 025°03'515.3
2018-Jul-20 05:23N 39°48' E 025°01'12714.9
2018-Jul-19 20:50N 37°47' E 024°09'14010.7
2018-Jul-19 07:46N 40°02' E 024°57'516.9
2018-Jul-19 07:29N 40°06' E 024°55'816.8
2018-Jul-19 07:00N 40°14' E 024°49'916.8
2018-Jul-19 06:30N 40°21' E 024°44'816.8
2018-Jul-19 06:00N 40°28' E 024°38'917.2
2018-Jul-19 05:30N 40°35' E 024°31'917.1
2018-Jul-19 05:01N 40°43' E 024°28'917.4
2018-Jul-19 04:31N 40°51' E 024°25'5 9.3
2018-Jul-19 04:00N 40°56' E 024°25'0 0.0
2018-Jul-19 03:30N 40°56' E 024°25'0 0.0
2018-Jul-19 03:01N 40°56' E 024°25'510.2
2018-Jul-19 02:30N 40°51' E 024°25'816.7
2018-Jul-19 02:00N 40°43' E 024°28'816.8
2018-Jul-19 01:31N 40°35' E 024°31'816.6
2018-Jul-19 01:01N 40°27' E 024°36'916.2
2018-Jul-19 00:29N 40°20' E 024°42'3216.0
2018-Jul-18 22:28N 39°52' E 025°03'0 0.2
2018-Jul-18 21:48N 39°52' E 025°03'515.0
2018-Jul-18 21:26N 39°47' E 025°01'1513.2
2018-Jul-18 20:20N 39°33' E 024°58'716.0
2018-Jul-18 19:52N 39°26' E 024°56'816.9
2018-Jul-18 19:23N 39°18' E 024°54'9715.1
2018-Jul-18 12:56N 37°47' E 024°09'13212.6
2018-Jul-18 02:24N 39°52' E 025°03'0 0.2
2018-Jul-18 01:30N 39°52' E 025°03'815.8
2018-Jul-18 00:59N 39°60' E 024°58'816.1
2018-Jul-18 00:30N 40°07' E 024°54'916.5
2018-Jul-17 23:59N 40°14' E 024°48'816.3
2018-Jul-17 23:30N 40°21' E 024°43'816.4
2018-Jul-17 23:00N 40°28' E 024°37'816.6
2018-Jul-17 22:30N 40°35' E 024°32'816.9
2018-Jul-17 22:00N 40°43' E 024°28'816.9
2018-Jul-17 21:30N 40°51' E 024°25'5 9.1
2018-Jul-17 20:58N 40°56' E 024°25'0 0.0
2018-Jul-17 20:18N 40°56' E 024°25'0 0.0
2018-Jul-17 20:00N 40°56' E 024°25'4 9.1
2018-Jul-17 19:30N 40°51' E 024°25'916.7
2018-Jul-17 18:59N 40°43' E 024°28'916.8
2018-Jul-17 18:28N 40°35' E 024°31'817.0
2018-Jul-17 18:00N 40°28' E 024°36'1116.6
2018-Jul-17 17:20N 40°18' E 024°43'616.7
2018-Jul-17 17:00N 40°13' E 024°47'24 8.9
2018-Jul-17 14:19N 39°52' E 025°02'2014.3
2018-Jul-17 12:57N 39°33' E 024°59'3717.0
2018-Jul-17 10:45N 38°56' E 024°49'517.4
2018-Jul-17 10:27N 38°51' E 024°48'817.3
2018-Jul-17 10:00N 38°43' E 024°46'917.5
2018-Jul-17 09:30N 38°35' E 024°44'5015.8
2018-Jul-17 06:23N 37°50' E 024°17'716.9
2018-Jul-17 05:58N 37°47' E 024°09'49 3.5
2018-Jul-16 16:16N 38°28' E 024°43'9114.0
2018-Jul-16 09:47N 39°58' E 024°58'516.7
2018-Jul-16 09:27N 40°02' E 024°55'1017.5
2018-Jul-16 08:52N 40°11' E 024°48'817.8
2018-Jul-16 08:26N 40°18' E 024°43'817.4
2018-Jul-16 07:59N 40°25' E 024°38'817.1
2018-Jul-16 07:30N 40°32' E 024°33'917.4
2018-Jul-16 07:00N 40°40' E 024°29'917.3
2018-Jul-16 06:30N 40°49' E 024°26'713.9
2018-Jul-16 05:59N 40°56' E 024°25'0 0.0
2018-Jul-16 05:25N 40°56' E 024°25'0 0.0
2018-Jul-16 02:49N 40°56' E 024°25'0 0.0
2018-Jul-16 02:25N 40°56' E 024°25'0 0.0
2018-Jul-16 01:55N 40°56' E 024°25'0 0.0
2018-Jul-16 01:25N 40°56' E 024°25'2 4.3
2018-Jul-16 01:00N 40°54' E 024°24'917.3
2018-Jul-16 00:30N 40°46' E 024°27'817.2
2018-Jul-16 00:01N 40°37' E 024°29'817.0
2018-Jul-15 23:31N 40°30' E 024°35'917.5
2018-Jul-15 22:59N 40°22' E 024°41'917.0
2018-Jul-15 22:28N 40°14' E 024°46'26 3.8
2018-Jul-15 15:41N 39°52' E 025°03'515.6
2018-Jul-15 15:20N 39°57' E 024°59'617.0
2018-Jul-15 15:00N 40°02' E 024°55'1217.6
2018-Jul-15 14:21N 40°12' E 024°48'817.9
2018-Jul-15 13:53N 40°19' E 024°43'717.4
2018-Jul-15 13:28N 40°25' E 024°38'817.3
2018-Jul-15 13:00N 40°32' E 024°33'917.1
2018-Jul-15 12:30N 40°40' E 024°29'817.1
2018-Jul-15 12:00N 40°48' E 024°26'815.1
2018-Jul-15 11:31N 40°56' E 024°25'0 0.0
2018-Jul-15 10:41N 40°56' E 024°25'0 0.0
2018-Jul-15 10:31N 40°56' E 024°25'612.6
2018-Jul-15 10:00N 40°50' E 024°26'917.3
2018-Jul-15 09:30N 40°41' E 024°28'917.1
2018-Jul-15 09:00N 40°33' E 024°32'917.0
2018-Jul-15 08:30N 40°26' E 024°38'917.5
2018-Jul-15 07:58N 40°17' E 024°43'29 3.0
2018-Jul-14 22:19N 39°52' E 025°03'2013.7
2018-Jul-14 20:52N 39°33' E 024°58'0 0.0
2018-Jul-13 19:28N 39°32' E 024°58'1414.0
2018-Jul-13 18:27N 39°46' E 025°01'6 4.8
2018-Jul-13 17:11N 39°52' E 025°03'615.6
2018-Jul-13 16:49N 39°57' E 024°59'516.9
2018-Jul-13 16:30N 40°01' E 024°55'917.2
2018-Jul-13 16:00N 40°09' E 024°50'1117.6
2018-Jul-13 15:24N 40°18' E 024°43'717.5
2018-Jul-13 15:00N 40°24' E 024°39'1717.4
2018-Jul-13 14:00N 40°40' E 024°29'917.3
2018-Jul-13 13:30N 40°48' E 024°26'814.8
2018-Jul-13 13:00N 40°56' E 024°25'0 0.0
2018-Jul-13 12:30N 40°56' E 024°25'0 0.0
2018-Jul-13 12:00N 40°56' E 024°25'0 0.0
2018-Jul-13 11:27N 40°56' E 024°25'0 0.0
2018-Jul-13 10:51N 40°56' E 024°25'0 0.0
2018-Jul-13 10:30N 40°56' E 024°25'4 8.2
2018-Jul-13 10:01N 40°52' E 024°25'917.3
2018-Jul-13 09:30N 40°44' E 024°28'817.0
2018-Jul-13 09:01N 40°35' E 024°31'917.3
2018-Jul-13 08:30N 40°28' E 024°37'917.4
2018-Jul-13 07:59N 40°20' E 024°42'3117.3
2018-Jul-13 06:13N 39°53' E 025°01'1 1.3
2018-Jul-13 05:09N 39°52' E 025°03'213.9
2018-Jul-13 05:00N 39°51' E 025°02'1217.0
2018-Jul-13 04:17N 39°39' E 024°59'516.8
2018-Jul-13 04:00N 39°34' E 024°59'7 9.7
2018-Jul-13 03:20N 39°28' E 024°56'1516.9
2018-Jul-13 02:27N 39°13' E 024°53'2216.7
2018-Jul-13 01:08N 38°51' E 024°48'6615.6
2018-Jul-12 20:55N 37°50' E 024°18'817.1
2018-Jul-12 20:28N 37°47' E 024°09'12711.8
2018-Jul-12 09:46N 39°47' E 025°01'6 4.7
2018-Jul-12 08:33N 39°52' E 025°03'114.1
2018-Jul-12 08:27N 39°53' E 025°02'1016.9
2018-Jul-12 07:53N 40°02' E 024°55'1017.0
2018-Jul-12 07:18N 40°10' E 024°49'517.1
2018-Jul-12 07:00N 40°14' E 024°46'916.9
2018-Jul-12 06:27N 40°23' E 024°40'717.0
2018-Jul-12 06:00N 40°29' E 024°35'816.6
2018-Jul-12 05:30N 40°37' E 024°30'917.1
2018-Jul-12 05:00N 40°45' E 024°27'816.9
2018-Jul-12 04:31N 40°53' E 024°25'3 5.7
2018-Jul-12 03:59N 40°56' E 024°25'0 0.0
2018-Jul-12 03:31N 40°56' E 024°25'0 0.0
2018-Jul-12 03:00N 40°56' E 024°25'0 0.0
2018-Jul-12 02:31N 40°56' E 024°25'1 2.2
2018-Jul-12 02:01N 40°55' E 024°24'917.1
2018-Jul-12 01:30N 40°47' E 024°27'917.1
2018-Jul-12 01:00N 40°38' E 024°29'817.1
2018-Jul-12 00:31N 40°31' E 024°34'917.0
2018-Jul-12 00:00N 40°23' E 024°40'916.9
2018-Jul-11 23:29N 40°16' E 024°45'2711.2
2018-Jul-11 21:05N 39°52' E 025°02'116.5
2018-Jul-11 20:59N 39°51' E 025°02'1813.6
2018-Jul-11 19:40N 39°33' E 024°58'3916.8
2018-Jul-11 17:21N 38°54' E 024°48'1916.9
2018-Jul-11 16:13N 38°36' E 024°45'517.0
2018-Jul-11 15:57N 38°31' E 024°44'62 5.0
2018-Jul-11 03:27N 39°32' E 024°58'1012.9
2018-Jul-11 02:42N 39°42' E 024°60'11 7.7
2018-Jul-11 01:18N 39°52' E 025°03'515.6
2018-Jul-11 00:59N 39°56' E 024°59'817.0
2018-Jul-11 00:31N 40°03' E 024°54'917.4
2018-Jul-11 00:01N 40°11' E 024°48'917.6
2018-Jul-10 23:30N 40°19' E 024°43'917.4
2018-Jul-10 23:01N 40°26' E 024°38'917.3
2018-Jul-10 22:31N 40°34' E 024°32'817.0
2018-Jul-10 22:01N 40°42' E 024°28'917.3
2018-Jul-10 21:31N 40°50' E 024°26'611.3
2018-Jul-10 21:00N 40°56' E 024°25'0 0.0
2018-Jul-10 20:28N 40°56' E 024°25'1 3.3
2018-Jul-10 20:00N 40°54' E 024°24'917.1
2018-Jul-10 19:30N 40°46' E 024°27'917.4
2018-Jul-10 19:00N 40°38' E 024°30'917.3
2018-Jul-10 18:30N 40°30' E 024°35'917.0
2018-Jul-10 18:00N 40°23' E 024°40'816.6
2018-Jul-10 17:30N 40°15' E 024°45'  

Dump ship's entire track history